Time;durP1;ratioP1;P1;durP2;ratioP2;P2;SDS_P1;SDS_P2;PMS_P1;PMS_P2;Temp;Humidity;BMP_temperature;BMP_pressure;BME280_temperature;BME280_humidity;BME280_pressure;Samples;Min_cycle;Max_cycle;Signal;HPM_P1;HPM_P2
2023/01/25 00:01:51;;;;;;;12.57;11.17;;;;;;;;;;5013269;28;20701;-70
2023/01/25 00:04:17;;;;;;;13.30;11.50;;;;;;;;;;4994953;28;20691;-70
2023/01/25 00:06:43;;;;;;;14.43;12.50;;;;;;;;;;5021657;28;20299;-69
2023/01/25 00:09:09;;;;;;;13.33;11.13;;;;;;;;;;5032151;28;20248;-70
2023/01/25 00:11:34;;;;;;;14.37;12.50;;;;;;;;;;5032735;28;20210;-70
2023/01/25 00:13:59;;;;;;;13.27;11.87;;;;;;;;;;5024863;28;20240;-70
2023/01/25 00:16:25;;;;;;;13.47;12.07;;;;;;;;;;5012543;28;20283;-70
2023/01/25 00:18:50;;;;;;;13.30;11.90;;;;;;;;;;5012845;28;20234;-70
2023/01/25 00:21:16;;;;;;;12.83;11.53;;;;;;;;;;5011614;28;20572;-70
2023/01/25 00:23:41;;;;;;;14.37;12.87;;;;;;;;;;5012803;28;20216;-70
2023/01/25 00:26:07;;;;;;;13.00;11.70;;;;;;;;;;5012177;28;20216;-70
2023/01/25 00:28:32;;;;;;;13.77;12.37;;;;;;;;;;5011883;28;20204;-70
2023/01/25 00:30:58;;;;;;;13.00;11.70;;;;;;;;;;5012571;28;20695;-70
2023/01/25 00:33:32;;;;;;;13.20;11.90;;;;;;;;;;5012040;28;20228;-69
2023/01/25 00:35:57;;;;;;;13.33;11.93;;;;;;;;;;4994181;28;20579;-70
2023/01/25 00:38:27;;;;;;;12.30;11.10;;;;;;;;;;5012123;28;20220;-70
2023/01/25 00:40:53;;;;;;;15.27;12.57;;;;;;;;;;5024325;28;20216;-70
2023/01/25 00:43:18;;;;;;;12.67;11.47;;;;;;;;;;5031728;28;20694;-70
2023/01/25 00:45:43;;;;;;;13.20;11.83;;;;;;;;;;5032446;28;20234;-70
2023/01/25 00:48:08;;;;;;;14.73;12.00;;;;;;;;;;5031184;28;20207;-70
2023/01/25 00:50:35;;;;;;;13.20;11.90;;;;;;;;;;5024795;28;20208;-70
2023/01/25 00:53:00;;;;;;;12.90;11.50;;;;;;;;;;5015852;28;20232;-69
2023/01/25 00:55:26;;;;;;;13.00;11.70;;;;;;;;;;5015751;28;20231;-69
2023/01/25 00:57:51;;;;;;;12.77;11.47;;;;;;;;;;5016527;28;20679;-70
2023/01/25 01:00:17;;;;;;;12.33;11.03;;;;;;;;;;5015666;28;20587;-69
2023/01/25 01:02:42;;;;;;;14.00;12.60;;;;;;;;;;5015441;28;20220;-70
2023/01/25 01:05:07;;;;;;;13.17;11.77;;;;;;;;;;5015909;28;20698;-69
2023/01/25 01:07:33;;;;;;;12.87;11.57;;;;;;;;;;5032209;28;20278;-70
2023/01/25 01:09:59;;;;;;;13.43;12.13;;;;;;;;;;5035093;28;20269;-70
2023/01/25 01:12:24;;;;;;;13.30;11.90;;;;;;;;;;5035309;28;20211;-70
2023/01/25 01:14:49;;;;;;;13.00;11.70;;;;;;;;;;5004617;28;20698;-69
2023/01/25 01:17:15;;;;;;;12.63;11.33;;;;;;;;;;5014800;28;20636;-70
2023/01/25 01:19:40;;;;;;;12.70;11.40;;;;;;;;;;5015949;28;20224;-69
2023/01/25 01:22:05;;;;;;;13.20;11.80;;;;;;;;;;5015253;28;20562;-69
2023/01/25 01:24:31;;;;;;;13.60;12.20;;;;;;;;;;5015421;28;20655;-69
2023/01/25 01:26:56;;;;;;;12.90;11.60;;;;;;;;;;5015794;28;20363;-70
2023/01/25 01:29:21;;;;;;;12.73;11.43;;;;;;;;;;5015246;28;20299;-70
2023/01/25 01:31:48;;;;;;;13.60;12.20;;;;;;;;;;5015276;28;20232;-70
2023/01/25 01:34:14;;;;;;;12.97;11.67;;;;;;;;;;5015191;28;20220;-70
2023/01/25 01:36:39;;;;;;;12.47;11.17;;;;;;;;;;5015725;28;20213;-70
2023/01/25 01:39:04;;;;;;;13.20;11.80;;;;;;;;;;5019751;28;20572;-69
2023/01/25 01:41:30;;;;;;;12.67;11.47;;;;;;;;;;5014517;28;20339;-70
2023/01/25 01:43:55;;;;;;;13.57;12.17;;;;;;;;;;5011975;28;20220;-70
2023/01/25 01:46:23;;;;;;;13.90;12.50;;;;;;;;;;5008689;28;20659;-69
2023/01/25 01:48:50;;;;;;;13.50;12.07;;;;;;;;;;5025366;28;20227;-65
2023/01/25 01:51:17;;;;;;;14.43;12.93;;;;;;;;;;5008465;28;20220;-65
2023/01/25 01:53:43;;;;;;;14.80;12.57;;;;;;;;;;5016930;28;20691;-65
2023/01/25 01:56:10;;;;;;;14.43;12.93;;;;;;;;;;4986140;28;20239;-65
2023/01/25 01:58:35;;;;;;;14.30;12.90;;;;;;;;;;4982380;28;20615;-65
2023/01/25 02:01:00;;;;;;;13.73;12.33;;;;;;;;;;4986227;28;20212;-65
2023/01/25 02:03:26;;;;;;;15.03;13.53;;;;;;;;;;5015375;28;20582;-65
2023/01/25 02:06:00;;;;;;;16.57;14.13;;;;;;;;;;5019229;28;20211;-65
2023/01/25 02:08:25;;;;;;;16.00;14.30;;;;;;;;;;5009060;28;20857;-65
2023/01/25 02:10:51;;;;;;;16.23;14.20;;;;;;;;;;4989922;28;20220;-65
2023/01/25 02:13:17;;;;;;;13.93;12.53;;;;;;;;;;5004943;28;20232;-65
2023/01/25 02:15:44;;;;;;;13.77;12.37;;;;;;;;;;4989468;28;20216;-65
2023/01/25 02:18:10;;;;;;;15.00;13.50;;;;;;;;;;5007175;28;20221;-65
2023/01/25 02:20:37;;;;;;;15.17;13.57;;;;;;;;;;4997242;28;20212;-65
2023/01/25 02:23:05;;;;;;;14.27;12.77;;;;;;;;;;4995490;28;20650;-65
2023/01/25 02:25:30;;;;;;;14.63;13.10;;;;;;;;;;4998837;28;20297;-65
2023/01/25 02:27:58;;;;;;;14.73;13.23;;;;;;;;;;5014449;28;20220;-65
2023/01/25 02:30:23;;;;;;;14.97;13.43;;;;;;;;;;4976553;28;20567;-65
2023/01/25 02:32:48;;;;;;;14.13;12.30;;;;;;;;;;5006045;28;20228;-65
2023/01/25 02:35:20;;;;;;;14.57;12.70;;;;;;;;;;5004297;28;20278;-65
2023/01/25 02:37:46;;;;;;;13.83;12.43;;;;;;;;;;5005217;28;20228;-65
2023/01/25 02:40:11;;;;;;;13.43;12.03;;;;;;;;;;5006884;28;20803;-65
2023/01/25 02:42:36;;;;;;;13.80;12.40;;;;;;;;;;5002083;28;20208;-65
2023/01/25 02:45:02;;;;;;;13.90;12.50;;;;;;;;;;4994840;28;20625;-65
2023/01/25 02:47:27;;;;;;;14.63;13.13;;;;;;;;;;4989540;28;20255;-65
2023/01/25 02:49:52;;;;;;;14.70;13.20;;;;;;;;;;5016360;28;20212;-65
2023/01/25 02:52:18;;;;;;;15.03;13.53;;;;;;;;;;5004078;28;20631;-65
2023/01/25 02:54:44;;;;;;;14.97;12.80;;;;;;;;;;5017716;28;20711;-65
2023/01/25 02:57:09;;;;;;;14.47;12.97;;;;;;;;;;5020105;28;20218;-65
2023/01/25 02:59:35;;;;;;;15.30;13.80;;;;;;;;;;5023225;28;20211;-65
2023/01/25 03:02:01;;;;;;;13.83;12.43;;;;;;;;;;5009415;28;20216;-65
2023/01/25 03:04:26;;;;;;;15.63;14.07;;;;;;;;;;5007823;28;20702;-65
2023/01/25 03:06:51;;;;;;;14.87;13.40;;;;;;;;;;5007669;28;20216;-65
2023/01/25 03:09:17;;;;;;;14.80;13.30;;;;;;;;;;5002621;28;20228;-65
2023/01/25 03:11:42;;;;;;;14.60;13.10;;;;;;;;;;5009310;28;20754;-65
2023/01/25 03:14:07;;;;;;;13.47;12.07;;;;;;;;;;5017838;28;20713;-65
2023/01/25 03:16:33;;;;;;;15.07;13.57;;;;;;;;;;5022178;28;20214;-65
2023/01/25 03:18:58;;;;;;;15.03;13.53;;;;;;;;;;5019974;28;20223;-65
2023/01/25 03:21:23;;;;;;;14.53;13.10;;;;;;;;;;5020393;28;20701;-65
2023/01/25 03:23:53;;;;;;;14.70;13.20;;;;;;;;;;5022787;28;20223;-65
2023/01/25 03:26:19;;;;;;;16.43;14.83;;;;;;;;;;5002180;28;20227;-65
2023/01/25 03:28:45;;;;;;;15.23;13.67;;;;;;;;;;5002726;28;20230;-65
2023/01/25 03:31:11;;;;;;;14.93;13.33;;;;;;;;;;5012818;28;20215;-65
2023/01/25 03:33:36;;;;;;;14.73;13.33;;;;;;;;;;5012199;28;20838;-65
2023/01/25 03:36:01;;;;;;;14.83;13.33;;;;;;;;;;5018475;28;20223;-65
2023/01/25 03:38:27;;;;;;;14.97;13.47;;;;;;;;;;5020644;28;20331;-65
2023/01/25 03:40:52;;;;;;;14.63;13.13;;;;;;;;;;5005243;28;20216;-65
2023/01/25 03:43:17;;;;;;;15.10;13.53;;;;;;;;;;5007079;28;20307;-65
2023/01/25 03:45:43;;;;;;;15.30;13.70;;;;;;;;;;5004998;28;20212;-65
2023/01/25 03:48:08;;;;;;;15.23;13.73;;;;;;;;;;5002858;28;20562;-65
2023/01/25 03:50:33;;;;;;;15.73;14.13;;;;;;;;;;5007130;28;20222;-65
2023/01/25 03:53:05;;;;;;;14.97;13.47;;;;;;;;;;5014225;28;20839;-65
2023/01/25 03:55:30;;;;;;;16.80;15.07;;;;;;;;;;5006991;28;20215;-65
2023/01/25 03:57:55;;;;;;;16.17;14.60;;;;;;;;;;5015335;28;20235;-65
2023/01/25 04:00:21;;;;;;;16.57;14.97;;;;;;;;;;5016865;28;20606;-65
2023/01/25 04:02:46;;;;;;;15.80;14.30;;;;;;;;;;5003248;28;20221;-65
2023/01/25 04:05:11;;;;;;;16.13;14.53;;;;;;;;;;5004614;28;20713;-65
2023/01/25 04:07:36;;;;;;;15.60;14.10;;;;;;;;;;5006616;28;20271;-65
2023/01/25 04:10:02;;;;;;;14.87;13.37;;;;;;;;;;4985059;28;20707;-65
2023/01/25 04:12:27;;;;;;;16.07;14.47;;;;;;;;;;4999804;28;20220;-65
2023/01/25 04:14:53;;;;;;;16.67;15.07;;;;;;;;;;5001680;28;20703;-65
2023/01/25 04:17:18;;;;;;;15.33;13.80;;;;;;;;;;5012558;28;20239;-65
2023/01/25 04:19:43;;;;;;;15.80;14.30;;;;;;;;;;4997846;28;20781;-65
2023/01/25 04:22:09;;;;;;;16.70;15.10;;;;;;;;;;5008913;28;20216;-65
2023/01/25 04:24:34;;;;;;;15.73;14.13;;;;;;;;;;5007164;28;20215;-64
2023/01/25 04:26:59;;;;;;;15.73;14.13;;;;;;;;;;5021413;28;20227;-65
2023/01/25 04:29:24;;;;;;;16.60;14.90;;;;;;;;;;5009164;28;20649;-65
2023/01/25 04:31:50;;;;;;;15.93;14.33;;;;;;;;;;5006454;28;20209;-65
2023/01/25 04:34:15;;;;;;;17.57;15.77;;;;;;;;;;5011037;28;20700;-65
2023/01/25 04:36:40;;;;;;;16.90;15.17;;;;;;;;;;5012583;28;20213;-65
2023/01/25 04:39:06;;;;;;;16.20;14.50;;;;;;;;;;5012090;28;20221;-65
2023/01/25 04:41:31;;;;;;;16.33;14.60;;;;;;;;;;5005964;28;20216;-65
2023/01/25 04:43:56;;;;;;;16.17;14.57;;;;;;;;;;5012479;28;20683;-65
2023/01/25 04:46:21;;;;;;;16.23;14.63;;;;;;;;;;5011944;28;20212;-65
2023/01/25 04:48:47;;;;;;;16.77;15.07;;;;;;;;;;5011764;28;20212;-65
2023/01/25 04:51:13;;;;;;;16.13;14.47;;;;;;;;;;5014724;28;20220;-65
2023/01/25 04:53:38;;;;;;;17.17;15.57;;;;;;;;;;5012298;28;20246;-65
2023/01/25 04:56:04;;;;;;;16.73;15.13;;;;;;;;;;5011202;28;20220;-65
2023/01/25 04:58:29;;;;;;;17.77;15.97;;;;;;;;;;5012390;28;20263;-65
2023/01/25 05:00:58;;;;;;;17.20;15.50;;;;;;;;;;4993832;28;20208;-65
2023/01/25 05:03:23;;;;;;;16.47;14.77;;;;;;;;;;5011550;28;20216;-65
2023/01/25 05:05:49;;;;;;;17.33;15.53;;;;;;;;;;5009719;28;20227;-65
2023/01/25 05:08:14;;;;;;;17.60;15.90;;;;;;;;;;4991368;28;20312;-65
2023/01/25 05:10:39;;;;;;;17.90;16.10;;;;;;;;;;4992677;28;20267;-65
2023/01/25 05:13:05;;;;;;;18.90;17.00;;;;;;;;;;4991852;28;20688;-65
2023/01/25 05:15:30;;;;;;;18.00;16.10;;;;;;;;;;5010371;28;20220;-65
2023/01/25 05:17:55;;;;;;;18.47;16.57;;;;;;;;;;5012167;28;20236;-65
2023/01/25 05:20:20;;;;;;;17.37;15.67;;;;;;;;;;5011501;28;20245;-65
2023/01/25 05:22:46;;;;;;;18.30;16.50;;;;;;;;;;5011525;28;20546;-65
2023/01/25 05:26:59;;;;;;;18.00;16.10;;;;;;;;;;5011703;28;20220;-65
2023/01/25 05:27:56;;;;;;;18.17;16.30;;;;;;;;;;5011477;28;20273;-65
2023/01/25 05:30:22;;;;;;;17.13;15.43;;;;;;;;;;5011185;28;20220;-65
2023/01/25 05:32:48;;;;;;;17.97;16.17;;;;;;;;;;5006453;28;20226;-65
2023/01/25 05:35:13;;;;;;;17.57;15.77;;;;;;;;;;5008212;28;20220;-65
2023/01/25 05:37:39;;;;;;;20.40;18.30;;;;;;;;;;5011409;28;20212;-65
2023/01/25 05:40:04;;;;;;;19.20;17.20;;;;;;;;;;5011687;28;20215;-65
2023/01/25 05:42:30;;;;;;;18.83;16.93;;;;;;;;;;4995477;28;20221;-65
2023/01/25 05:44:55;;;;;;;19.10;17.20;;;;;;;;;;5011158;28;20259;-65
2023/01/25 05:47:20;;;;;;;19.50;17.50;;;;;;;;;;5014818;28;20213;-65
2023/01/25 05:49:45;;;;;;;19.87;17.87;;;;;;;;;;5013979;28;20248;-65
2023/01/25 05:52:12;;;;;;;19.60;17.60;;;;;;;;;;4994333;28;20608;-66
2023/01/25 05:54:38;;;;;;;19.53;17.53;;;;;;;;;;4978323;28;20240;-65
2023/01/25 05:57:03;;;;;;;20.93;18.73;;;;;;;;;;4994874;28;20259;-65
2023/01/25 05:59:28;;;;;;;20.87;18.70;;;;;;;;;;4994901;28;20676;-65
2023/01/25 06:01:54;;;;;;;20.03;17.97;;;;;;;;;;4995584;28;20749;-65
2023/01/25 06:04:19;;;;;;;19.17;17.27;;;;;;;;;;4994055;28;20225;-65
2023/01/25 06:06:44;;;;;;;20.20;18.17;;;;;;;;;;5004916;28;20208;-65
2023/01/25 06:09:10;;;;;;;21.33;19.13;;;;;;;;;;5014438;28;20239;-65
2023/01/25 06:11:36;;;;;;;20.17;18.17;;;;;;;;;;5027124;28;20216;-65
2023/01/25 06:14:01;;;;;;;20.57;18.47;;;;;;;;;;5026824;28;20587;-65
2023/01/25 06:16:26;;;;;;;20.33;18.17;;;;;;;;;;5014950;28;20204;-65
2023/01/25 06:18:51;;;;;;;22.43;20.13;;;;;;;;;;5013830;28;20244;-65
2023/01/25 06:21:17;;;;;;;21.57;19.27;;;;;;;;;;5014130;28;20299;-65
2023/01/25 06:23:42;;;;;;;22.80;20.37;;;;;;;;;;5014751;28;20223;-65
2023/01/25 06:26:09;;;;;;;22.93;20.53;;;;;;;;;;5013349;28;20223;-65
2023/01/25 06:28:34;;;;;;;22.07;19.77;;;;;;;;;;5014243;28;20219;-65
2023/01/25 06:31:08;;;;;;;23.00;20.60;;;;;;;;;;5014596;28;20212;-65
2023/01/25 06:33:33;;;;;;;22.23;19.93;;;;;;;;;;5013115;28;20216;-65
2023/01/25 06:35:59;;;;;;;22.57;20.13;;;;;;;;;;5007471;28;20216;-65
2023/01/25 06:38:25;;;;;;;22.40;20.00;;;;;;;;;;5001565;28;20216;-69
2023/01/25 06:40:50;;;;;;;20.97;18.77;;;;;;;;;;5003592;28;20223;-69
2023/01/25 06:43:15;;;;;;;22.90;20.23;;;;;;;;;;5013487;28;20258;-69
2023/01/25 06:45:41;;;;;;;21.47;19.30;;;;;;;;;;5004181;28;20215;-70
2023/01/25 06:48:06;;;;;;;21.27;19.07;;;;;;;;;;5008573;28;20921;-69
2023/01/25 06:50:31;;;;;;;22.03;19.80;;;;;;;;;;5006604;28;20341;-69
2023/01/25 06:52:56;;;;;;;21.87;19.57;;;;;;;;;;5009176;28;20737;-69
2023/01/25 06:55:22;;;;;;;21.37;19.17;;;;;;;;;;5006449;28;20216;-70
2023/01/25 06:57:47;;;;;;;24.87;22.23;;;;;;;;;;5009108;28;20768;-69
2023/01/25 07:00:13;;;;;;;24.13;21.57;;;;;;;;;;5004569;28;20227;-69
2023/01/25 07:02:39;;;;;;;23.63;21.13;;;;;;;;;;5000282;28;20216;-69
2023/01/25 07:05:04;;;;;;;22.50;20.20;;;;;;;;;;4999693;28;20221;-69
2023/01/25 07:07:29;;;;;;;21.47;19.00;;;;;;;;;;5003056;28;20225;-69
2023/01/25 07:09:55;;;;;;;22.07;19.87;;;;;;;;;;5007734;28;20726;-69
2023/01/25 07:12:21;;;;;;;21.10;18.90;;;;;;;;;;5025514;28;20618;-69
2023/01/25 07:14:48;;;;;;;22.20;19.90;;;;;;;;;;5012743;28;20282;-69
2023/01/25 07:17:13;;;;;;;21.03;18.83;;;;;;;;;;5017423;28;20212;-69
2023/01/25 07:19:38;;;;;;;21.87;19.60;;;;;;;;;;5021430;28;20350;-69
2023/01/25 07:22:04;;;;;;;21.77;19.57;;;;;;;;;;5013725;28;20208;-71
2023/01/25 07:24:29;;;;;;;21.13;18.93;;;;;;;;;;5018770;28;20220;-69
2023/01/25 07:26:54;;;;;;;25.60;23.30;;;;;;;;;;5025485;28;20421;-71
2023/01/25 07:29:20;;;;;;;23.17;20.73;;;;;;;;;;5031673;28;20212;-68
2023/01/25 07:31:45;;;;;;;23.23;20.93;;;;;;;;;;5027397;28;20216;-70
2023/01/25 07:34:11;;;;;;;25.73;23.53;;;;;;;;;;5015514;28;20461;-69
2023/01/25 07:36:37;;;;;;;24.57;22.07;;;;;;;;;;5019824;28;20220;-70
2023/01/25 07:39:02;;;;;;;25.37;22.87;;;;;;;;;;5005484;28;20234;-69
2023/01/25 07:41:27;;;;;;;24.27;21.87;;;;;;;;;;5011123;28;20433;-64
2023/01/25 07:43:53;;;;;;;23.60;21.20;;;;;;;;;;5029807;28;20223;-64
2023/01/25 07:46:18;;;;;;;23.47;21.07;;;;;;;;;;5031046;28;20216;-64
2023/01/25 07:48:44;;;;;;;22.30;20.00;;;;;;;;;;5032822;28;20579;-64
2023/01/25 07:51:11;;;;;;;22.07;19.63;;;;;;;;;;5018883;28;20216;-64
2023/01/25 07:53:37;;;;;;;23.10;20.80;;;;;;;;;;5012853;28;20219;-63
2023/01/25 07:56:02;;;;;;;23.07;20.67;;;;;;;;;;5012047;28;20220;-63
2023/01/25 07:58:27;;;;;;;23.37;20.97;;;;;;;;;;5012399;28;20216;-63
2023/01/25 08:00:53;;;;;;;22.37;20.07;;;;;;;;;;5012074;28;20212;-63
2023/01/25 08:03:21;;;;;;;23.17;20.77;;;;;;;;;;5012328;28;20216;-63
2023/01/25 08:05:46;;;;;;;24.83;22.13;;;;;;;;;;5013939;28;20679;-64
2023/01/25 08:08:11;;;;;;;26.43;23.13;;;;;;;;;;5031764;28;20243;-64
2023/01/25 08:10:37;;;;;;;25.63;22.90;;;;;;;;;;5032107;28;20583;-64
2023/01/25 08:13:02;;;;;;;23.70;21.30;;;;;;;;;;5031343;28;20588;-64
2023/01/25 08:15:27;;;;;;;23.67;21.17;;;;;;;;;;5013512;28;20219;-64
2023/01/25 08:17:53;;;;;;;23.43;20.93;;;;;;;;;;5011961;28;20208;-65
2023/01/25 08:20:18;;;;;;;22.93;20.53;;;;;;;;;;5019598;28;20212;-65
2023/01/25 08:22:43;;;;;;;23.77;21.27;;;;;;;;;;5027297;28;20296;-65
2023/01/25 08:25:09;;;;;;;22.93;20.53;;;;;;;;;;5030240;28;20214;-64
2023/01/25 08:27:34;;;;;;;22.60;20.20;;;;;;;;;;5029796;28;20211;-64
2023/01/25 08:29:59;;;;;;;21.83;19.53;;;;;;;;;;5027769;28;20290;-64
2023/01/25 08:32:25;;;;;;;23.70;21.20;;;;;;;;;;5026483;28;20224;-64
2023/01/25 08:34:50;;;;;;;23.57;21.17;;;;;;;;;;5032208;28;20310;-64
2023/01/25 08:37:15;;;;;;;21.87;19.57;;;;;;;;;;5031560;28;20223;-64
2023/01/25 08:39:40;;;;;;;22.27;19.97;;;;;;;;;;5031285;28;20725;-64
2023/01/25 08:42:06;;;;;;;24.23;21.63;;;;;;;;;;5031357;28;20237;-64
2023/01/25 08:44:31;;;;;;;23.20;20.80;;;;;;;;;;5032045;28;20211;-65
2023/01/25 08:46:56;;;;;;;23.77;21.30;;;;;;;;;;5031111;28;20216;-64
2023/01/25 08:49:22;;;;;;;22.13;19.80;;;;;;;;;;5028491;28;20616;-64
2023/01/25 08:51:49;;;;;;;23.37;20.87;;;;;;;;;;5012164;28;20224;-64
2023/01/25 08:54:14;;;;;;;21.13;18.93;;;;;;;;;;5010725;28;20228;-65
2023/01/25 08:56:39;;;;;;;23.40;20.90;;;;;;;;;;4994788;28;20208;-63
2023/01/25 08:59:05;;;;;;;22.10;19.80;;;;;;;;;;5011824;28;20212;-65
2023/01/25 09:01:30;;;;;;;22.17;19.87;;;;;;;;;;5011715;28;20655;-66
2023/01/25 09:03:55;;;;;;;23.90;21.33;;;;;;;;;;5012532;28;20255;-66
2023/01/25 09:06:21;;;;;;;21.47;19.27;;;;;;;;;;5005011;28;20225;-65
2023/01/25 09:08:46;;;;;;;22.27;19.93;;;;;;;;;;4991702;28;20225;-66
2023/01/25 09:11:12;;;;;;;22.77;20.40;;;;;;;;;;4992223;28;20224;-65
2023/01/25 09:13:42;;;;;;;21.60;19.33;;;;;;;;;;4999192;28;20226;-65
2023/01/25 09:16:08;;;;;;;23.37;20.87;;;;;;;;;;5015219;28;20274;-65
2023/01/25 09:18:34;;;;;;;23.07;20.67;;;;;;;;;;5015793;28;20231;-65
2023/01/25 09:21:04;;;;;;;22.67;20.27;;;;;;;;;;5015604;28;20275;-65
2023/01/25 09:23:29;;;;;;;23.10;20.70;;;;;;;;;;5014909;28;20208;-65
2023/01/25 09:25:56;;;;;;;23.60;20.83;;;;;;;;;;5015726;28;20239;-65
2023/01/25 09:28:22;;;;;;;23.17;20.77;;;;;;;;;;4996881;28;20216;-65
2023/01/25 09:30:54;;;;;;;23.00;20.60;;;;;;;;;;5005021;28;20714;-65
2023/01/25 09:33:19;;;;;;;22.57;20.17;;;;;;;;;;4995414;28;20229;-65
2023/01/25 09:35:46;;;;;;;23.53;21.03;;;;;;;;;;4995370;28;20263;-66
2023/01/25 09:38:11;;;;;;;23.03;20.53;;;;;;;;;;4995295;28;20256;-65
2023/01/25 09:40:37;;;;;;;21.97;19.60;;;;;;;;;;4996110;28;20603;-65
2023/01/25 09:43:05;;;;;;;22.60;20.20;;;;;;;;;;4977069;28;20215;-65
2023/01/25 09:45:31;;;;;;;23.70;20.60;;;;;;;;;;4978813;28;20213;-65
2023/01/25 09:47:58;;;;;;;22.13;19.83;;;;;;;;;;4995555;28;20227;-65
2023/01/25 09:50:32;;;;;;;22.97;20.17;;;;;;;;;;5000741;28;20208;-65
2023/01/25 09:52:58;;;;;;;21.60;19.30;;;;;;;;;;5015301;28;20224;-65
2023/01/25 09:55:24;;;;;;;23.23;20.67;;;;;;;;;;5014544;28;20294;-65
2023/01/25 09:57:52;;;;;;;21.97;19.67;;;;;;;;;;5014638;28;20224;-65
2023/01/25 10:00:26;;;;;;;21.10;18.80;;;;;;;;;;4997643;28;20584;-65
2023/01/25 10:02:53;;;;;;;21.97;19.67;;;;;;;;;;5014672;28;20231;-65
2023/01/25 10:05:20;;;;;;;23.07;20.43;;;;;;;;;;4996502;28;20292;-65
2023/01/25 10:07:46;;;;;;;21.97;19.57;;;;;;;;;;4996615;28;20283;-65
2023/01/25 10:10:15;;;;;;;23.73;21.23;;;;;;;;;;4994440;28;20210;-64
2023/01/25 10:12:40;;;;;;;23.27;20.27;;;;;;;;;;4971731;28;20227;-66
2023/01/25 10:15:16;;;;;;;21.93;19.60;;;;;;;;;;5009989;28;20571;-65
2023/01/25 10:17:41;;;;;;;22.00;19.60;;;;;;;;;;5009558;28;20218;-66
2023/01/25 10:20:11;;;;;;;23.70;20.97;;;;;;;;;;5014432;28;20225;-65
2023/01/25 10:22:40;;;;;;;25.17;21.23;;;;;;;;;;4997421;28;20296;-65
2023/01/25 10:25:11;;;;;;;22.73;20.20;;;;;;;;;;5012967;28;20213;-66
2023/01/25 10:27:43;;;;;;;23.17;19.67;;;;;;;;;;4996818;28;20667;-65
2023/01/25 10:30:20;;;;;;;22.93;20.43;;;;;;;;;;5008424;28;20221;-66
2023/01/25 10:32:45;;;;;;;24.40;21.67;;;;;;;;;;4995233;28;20233;-66
2023/01/25 10:35:13;;;;;;;23.53;21.00;;;;;;;;;;4996362;28;20588;-65
2023/01/25 10:37:39;;;;;;;24.27;20.90;;;;;;;;;;5001002;28;20647;-65
2023/01/25 10:40:12;;;;;;;23.97;21.37;;;;;;;;;;4993518;28;20263;-65
2023/01/25 10:42:40;;;;;;;24.00;21.40;;;;;;;;;;4989899;28;20216;-65
2023/01/25 10:45:10;;;;;;;25.90;23.03;;;;;;;;;;5013535;28;20224;-65
2023/01/25 10:47:35;;;;;;;24.57;21.83;;;;;;;;;;5013989;28;20221;-65
2023/01/25 10:50:02;;;;;;;28.80;23.63;;;;;;;;;;5000535;28;20208;-64
2023/01/25 10:52:29;;;;;;;26.77;23.47;;;;;;;;;;4994227;28;20213;-65
2023/01/25 10:55:12;;;;;;;26.23;23.07;;;;;;;;;;4993994;28;20227;-66
2023/01/25 10:57:41;;;;;;;25.63;22.60;;;;;;;;;;4993631;28;20216;-65
2023/01/25 11:00:09;;;;;;;26.57;23.63;;;;;;;;;;4993037;28;20275;-65
2023/01/25 11:02:35;;;;;;;25.90;22.33;;;;;;;;;;4994442;28;20659;-65
2023/01/25 11:05:18;;;;;;;24.53;21.33;;;;;;;;;;4993994;28;20209;-68
2023/01/25 11:07:45;;;;;;;25.67;22.30;;;;;;;;;;5007172;28;20298;-68
2023/01/25 11:10:26;;;;;;;25.80;21.23;;;;;;;;;;5013439;28;20675;-64
2023/01/25 11:13:10;;;;;;;24.13;20.93;;;;;;;;;;5013148;28;20706;-64
2023/01/25 11:15:36;;;;;;;26.67;20.70;;;;;;;;;;5006765;28;20204;-64
2023/01/25 11:18:03;;;;;;;24.70;21.80;;;;;;;;;;4993517;28;20261;-64
2023/01/25 11:20:29;;;;;;;24.67;21.03;;;;;;;;;;5013258;28;20220;-63
2023/01/25 11:22:54;;;;;;;24.77;21.83;;;;;;;;;;5019931;28;20220;-64
2023/01/25 11:25:25;;;;;;;27.47;23.43;;;;;;;;;;5032098;28;20215;-64
2023/01/25 11:27:50;;;;;;;27.57;23.37;;;;;;;;;;5014796;28;20216;-63
2023/01/25 11:30:17;;;;;;;27.17;22.57;;;;;;;;;;5026226;28;20223;-63
2023/01/25 11:32:43;;;;;;;26.93;23.57;;;;;;;;;;5031453;28;20266;-63
2023/01/25 11:35:12;;;;;;;27.90;23.17;;;;;;;;;;5031160;28;20228;-64
2023/01/25 11:37:56;;;;;;;28.17;22.90;;;;;;;;;;5033089;28;20216;-64
2023/01/25 11:40:23;;;;;;;27.17;22.43;;;;;;;;;;5032148;28;20307;-63
2023/01/25 11:42:57;;;;;;;26.07;22.50;;;;;;;;;;5014671;28;20226;-63
2023/01/25 11:45:32;;;;;;;25.47;22.33;;;;;;;;;;5015183;28;20216;-63
2023/01/25 11:48:08;;;;;;;25.27;21.47;;;;;;;;;;5015089;28;20228;-63
2023/01/25 11:50:35;;;;;;;28.07;22.60;;;;;;;;;;5006487;28;20347;-63
2023/01/25 11:53:12;;;;;;;27.17;22.83;;;;;;;;;;4996390;28;20228;-63
2023/01/25 11:55:40;;;;;;;25.47;21.33;;;;;;;;;;4992925;28;20251;-63
2023/01/25 11:58:11;;;;;;;26.40;21.93;;;;;;;;;;4992387;28;20708;-63
2023/01/25 12:00:40;;;;;;;28.23;22.73;;;;;;;;;;4992242;28;20213;-63
2023/01/25 12:03:06;;;;;;;27.00;22.40;;;;;;;;;;4990944;28;20221;-63
2023/01/25 12:05:43;;;;;;;26.23;21.80;;;;;;;;;;4993276;28;20271;-63
2023/01/25 12:08:19;;;;;;;26.17;21.73;;;;;;;;;;5001787;28;20232;-63
2023/01/25 12:10:44;;;;;;;26.50;22.73;;;;;;;;;;4994373;28;20208;-63
2023/01/25 12:13:17;;;;;;;29.43;24.33;;;;;;;;;;5011955;28;20220;-63
2023/01/25 12:15:43;;;;;;;27.67;23.37;;;;;;;;;;5014665;28;20216;-63
2023/01/25 12:18:14;;;;;;;29.30;24.73;;;;;;;;;;5031434;28;20215;-63
2023/01/25 12:20:42;;;;;;;28.77;24.50;;;;;;;;;;5014638;28;20218;-63
2023/01/25 12:23:19;;;;;;;30.40;24.10;;;;;;;;;;5020514;28;20220;-63
2023/01/25 12:25:48;;;;;;;27.70;22.90;;;;;;;;;;5011876;28;20211;-63
2023/01/25 12:28:16;;;;;;;29.97;24.57;;;;;;;;;;4994578;28;20235;-64
2023/01/25 12:30:50;;;;;;;29.53;25.07;;;;;;;;;;5004090;28;20221;-63
2023/01/25 12:33:27;;;;;;;29.30;24.10;;;;;;;;;;4994051;28;20235;-63
2023/01/25 12:36:02;;;;;;;32.00;25.30;;;;;;;;;;5012489;28;20212;-63
2023/01/25 12:38:33;;;;;;;29.67;24.60;;;;;;;;;;5011613;28;20294;-63
2023/01/25 12:41:01;;;;;;;30.07;24.63;;;;;;;;;;4994634;28;20216;-63
2023/01/25 12:43:29;;;;;;;30.53;24.93;;;;;;;;;;5014210;28;20277;-64
2023/01/25 12:45:54;;;;;;;31.87;26.60;;;;;;;;;;5013821;28;20274;-63
2023/01/25 12:48:28;;;;;;;29.53;24.97;;;;;;;;;;5017293;28;20662;-63
2023/01/25 12:50:55;;;;;;;30.73;24.93;;;;;;;;;;5025246;28;20278;-63
2023/01/25 12:53:20;;;;;;;33.23;26.53;;;;;;;;;;5015330;28;20319;-63
2023/01/25 12:55:46;;;;;;;33.33;26.63;;;;;;;;;;5016074;28;20650;-63
2023/01/25 12:58:17;;;;;;;33.23;24.47;;;;;;;;;;5015614;28;20746;-63
2023/01/25 13:00:47;;;;;;;30.03;24.40;;;;;;;;;;4998073;28;20216;-64
2023/01/25 13:03:31;;;;;;;30.20;24.80;;;;;;;;;;4998434;28;20216;-64
2023/01/25 13:05:59;;;;;;;29.37;23.73;;;;;;;;;;5019160;28;20207;-63
2023/01/25 13:08:37;;;;;;;31.20;25.13;;;;;;;;;;5034927;28;20228;-63
2023/01/25 13:11:03;;;;;;;30.40;24.53;;;;;;;;;;5034910;28;20219;-63
2023/01/25 13:13:28;;;;;;;30.93;25.03;;;;;;;;;;5024612;28;20220;-64
2023/01/25 13:15:54;;;;;;;29.93;25.03;;;;;;;;;;5035610;28;20599;-64
2023/01/25 13:18:23;;;;;;;29.07;23.87;;;;;;;;;;5007341;28;20667;-63
2023/01/25 13:20:49;;;;;;;30.77;24.93;;;;;;;;;;5014985;28;20304;-63
2023/01/25 13:23:28;;;;;;;30.70;24.70;;;;;;;;;;5015111;28;20228;-64
2023/01/25 13:26:07;;;;;;;31.10;25.63;;;;;;;;;;5015188;28;20254;-63
2023/01/25 13:28:39;;;;;;;32.47;25.47;;;;;;;;;;4977901;28;20263;-63
2023/01/25 13:31:05;;;;;;;31.10;24.87;;;;;;;;;;5000040;28;20220;-63
2023/01/25 13:33:31;;;;;;;33.00;26.33;;;;;;;;;;5015200;28;20217;-64
2023/01/25 13:35:56;;;;;;;31.67;25.17;;;;;;;;;;5014825;28;20212;-63
2023/01/25 13:38:24;;;;;;;32.37;24.87;;;;;;;;;;4997422;28;20258;-63
2023/01/25 13:41:03;;;;;;;35.37;26.93;;;;;;;;;;5012735;28;20212;-63
2023/01/25 13:43:28;;;;;;;32.57;24.97;;;;;;;;;;4989431;28;20204;-63
2023/01/25 13:45:53;;;;;;;34.47;25.57;;;;;;;;;;5015077;28;20228;-63
2023/01/25 13:48:20;;;;;;;31.17;24.40;;;;;;;;;;5014533;28;20217;-63
2023/01/25 13:50:46;;;;;;;32.87;26.53;;;;;;;;;;5008478;28;20711;-63
2023/01/25 13:53:13;;;;;;;35.20;26.67;;;;;;;;;;4993612;28;20218;-63
2023/01/25 13:55:40;;;;;;;35.73;27.30;;;;;;;;;;4994589;28;20307;-63
2023/01/25 13:58:09;;;;;;;37.13;27.23;;;;;;;;;;4994641;28;20296;-64
2023/01/25 14:00:34;;;;;;;36.30;27.87;;;;;;;;;;4994943;28;20292;-63
2023/01/25 14:03:00;;;;;;;35.87;28.17;;;;;;;;;;4993466;28;20762;-64
2023/01/25 14:05:25;;;;;;;35.27;27.23;;;;;;;;;;4994964;28;20224;-64
2023/01/25 14:07:51;;;;;;;37.30;28.23;;;;;;;;;;5013670;28;20232;-63
2023/01/25 14:10:22;;;;;;;35.93;27.67;;;;;;;;;;5013325;28;20311;-64
2023/01/25 14:12:47;;;;;;;35.93;26.90;;;;;;;;;;4997817;28;20298;-63
2023/01/25 14:15:20;;;;;;;36.50;28.00;;;;;;;;;;4997490;28;20217;-63